Flight Track Log - Related Links

Times and Time Zones

All times are in EDT time to prevent confusion due to time zone crossing. See the JBU1201 flight status page for this flight to view local times or setup timezone preferences in your user account.

Time Position Orientation Groundspeed Altitude Reporting Facility
EDT Latitude Longitude Course Direction KTS MPH feet Rate Location/Type
Fri 10:12:13 PM 40.6333 -73.8500 221° Southwest 195 224 2,500  Level New York TRACON
Fri 10:13:49 PM 40.5467 -73.8436 177° South 253 291 6,700 2,828 Climbing New York Center
Fri 10:14:00 PM 40.1899 -74.0157 220° Southwest  Level Estimated
Fri 10:14:50 PM 40.5239 -73.7553 109° East 253 291 9,900  Level New York Center
Fri 10:15:00 PM 40.0932 -73.9201 143° Southeast  Level FlightAware Approximate
Fri 10:15:48 PM 40.4725 -73.6492 122° Southeast 289 333 11,700  Level New York Center
Fri 10:16:00 PM 40.0173 -73.8454 143° Southeast  Level FlightAware Approximate
Fri 10:16:48 PM 40.3992 -73.5753 142° Southeast 348 400 14,200  Level New York Center
Fri 10:17:00 PM 39.9295 -73.8929 221° Southwest  Level Estimated
Fri 10:17:48 PM 40.3078 -73.4736 140° Southeast 385 443 17,300  Level New York Center
Fri 10:18:50 PM 40.2264 -73.3889 142° Southeast 390 449 19,200 1,900 Climbing New York Center
Fri 10:19:48 PM 40.1164 -73.3711 173° South 381 438 21,100 1,181 Climbing New York Center
Fri 10:22:03 PM 39.8944 -73.5714 215° Southwest 405 466 23,000 582 Climbing Washington Center
Fri 10:23:04 PM 39.7978 -73.6606 215° Southwest 427 491 23,000 639 Level Washington Center
Fri 10:24:05 PM 39.6994 -73.7522 216° Southwest 441 507 24,300 1,361 Climbing Washington Center
Fri 10:25:03 PM 39.5944 -73.8464 215° Southwest 446 513 25,700 1,525 Climbing Washington Center
Fri 10:26:03 PM 39.4917 -73.9458 217° Southwest 456 525 27,300 1,450 Climbing Washington Center
Fri 10:27:03 PM 39.3867 -74.0450 216° Southwest 466 536 28,600 1,250 Climbing Washington Center
Fri 10:28:03 PM 39.2839 -74.1569 220° Southwest 480 552 29,800 700 Climbing Washington Center
Fri 10:29:03 PM 39.1811 -74.2717 221° Southwest 496 571 30,000 645 Climbing Washington Center
Fri 10:30:04 PM 39.0736 -74.3725 216° Southwest 491 565 31,100 1,350 Climbing Washington Center
Fri 10:31:03 PM 38.9619 -74.4597 211° Southwest 491 565 32,700 1,537 Climbing Washington Center
Fri 10:32:05 PM 38.8461 -74.5494 211° Southwest 486 559 34,200 1,350 Climbing Washington Center
Fri 10:33:03 PM 38.7364 -74.6389 212° Southwest 479 551 35,400 915 Climbing Washington Center
Fri 10:34:03 PM 38.6244 -74.7281 212° Southwest 479 551 36,000 246 Climbing Washington Center
Fri 10:35:05 PM 38.5144 -74.8142 211° Southwest 472 543 35,900  Descending Washington Center
Fri 10:36:03 PM 38.4047 -74.8975 211° Southwest 472 543 36,000  Climbing Washington Center
Fri 10:37:04 PM 38.2967 -74.9911 214° Southwest 472 543 35,900  Descending Washington Center
Fri 10:38:04 PM 38.1825 -75.0767 211° Southwest 472 543 36,000 50 Climbing Washington Center
Fri 10:39:03 PM 38.0744 -75.1644 213° Southwest 477 549 36,000  Level Washington Center
Fri 10:40:03 PM 37.9619 -75.2467 210° Southwest 477 549 36,000  Level Washington Center
Fri 10:41:03 PM 37.8475 -75.3314 210° Southwest 477 549 36,000  Level Washington Center
Fri 10:42:03 PM 37.7372 -75.4186 212° Southwest 477 549 36,000  Level Washington Center
Fri 10:43:03 PM 37.6267 -75.5028 211° Southwest 477 549 36,000  Level Washington Center
Fri 10:44:04 PM 37.5161 -75.5867 211° Southwest 477 549 36,000  Level Washington Center
Fri 10:45:04 PM 37.4056 -75.6728 212° Southwest 477 549 36,000  Level Washington Center
Fri 10:46:05 PM 37.2950 -75.7564 211° Southwest 477 549 36,000  Level Washington Center
Fri 10:47:03 PM 37.1822 -75.8422 211° Southwest 477 549 36,000  Level Washington Center
Fri 10:48:04 PM 37.0694 -75.9250 210° Southwest 477 549 36,000  Level Washington Center
Fri 10:49:03 PM 36.9503 -76.0053 208° Southwest 477 549 36,000  Level Washington Center
Fri 10:50:03 PM 36.8350 -76.0903 211° Southwest 496 571 36,000  Level Washington Center
Fri 10:51:04 PM 36.7306 -76.1697 211° Southwest 490 564 36,000  Level Washington Center
Fri 10:52:04 PM 36.6153 -76.2594 212° Southwest 490 564 36,000 -50 Level Washington Center
Fri 10:53:03 PM 36.5000 -76.3439 210° Southwest 490 564 35,900  Descending Washington Center
Fri 10:54:03 PM 36.3806 -76.4306 210° Southwest 495 570 36,000 50 Climbing Washington Center
Fri 10:55:04 PM 36.2608 -76.5167 210° Southwest 495 570 36,000  Level Washington Center
Fri 10:56:03 PM 36.1433 -76.6056 211° Southwest 495 570 36,000  Level Washington Center
Fri 10:57:03 PM 36.0194 -76.6936 210° Southwest 495 570 36,000  Level Washington Center
Fri 10:58:04 PM 35.8978 -76.7817 210° Southwest 501 577 36,000  Level Washington Center
Fri 10:59:03 PM 35.7778 -76.8644 209° Southwest 501 577 36,000 -50 Level Washington Center
Fri 11:00:03 PM 35.6539 -76.9544 211° Southwest 506 582 35,900  Descending Washington Center
Fri 11:01:05 PM 35.5358 -77.0419 211° Southwest 506 582 36,000 49 Climbing Washington Center
Fri 11:02:05 PM 35.4017 -77.1056 201° Southwest 511 588 36,000  Level Washington Center
Fri 11:03:03 PM 35.2631 -77.1617 198° South 523 602 36,000  Level Washington Center
Fri 11:04:03 PM 35.1269 -77.2147 198° South 523 602 36,000  Level Washington Center
Fri 11:05:03 PM 34.9906 -77.2678 198° South 518 596 36,000  Level Washington Center
Fri 11:06:04 PM 34.8561 -77.3233 199° South 523 602 36,000  Level Washington Center
Fri 11:07:05 PM 34.7072 -77.3833 198° South 518 596 36,000  Level Washington Center
Fri 11:08:03 PM 34.5728 -77.4358 198° South 518 596 36,000  Level Washington Center
Fri 11:09:03 PM 34.4383 -77.4908 199° South 518 596 36,000  Level Washington Center
Fri 11:10:04 PM 34.3042 -77.5431 198° South 518 596 36,000  Level Washington Center
Fri 11:12:17 PM 34.0114 -77.6544 198° South 496 571 36,000  Level Jacksonville Center
Fri 11:13:17 PM 33.8758 -77.7075 198° South 501 577 36,000  Level Jacksonville Center
Fri 11:14:17 PM 33.7425 -77.7603 198° South 511 588 36,000  Level Jacksonville Center
Fri 11:15:17 PM 33.6089 -77.8128 198° South 511 588 36,000  Level Jacksonville Center
Fri 11:16:17 PM 33.4775 -77.8628 198° South 511 588 36,000  Level Jacksonville Center
Fri 11:17:17 PM 33.3439 -77.9125 197° South 511 588 36,000  Level Jacksonville Center
Fri 11:18:17 PM 33.2164 -77.9644 199° South 506 582 36,000 -50 Level Jacksonville Center
Fri 11:19:17 PM 33.0847 -78.0114 197° South 496 571 35,900  Descending Jacksonville Center
Fri 11:20:17 PM 32.9572 -78.0603 198° South 496 571 36,000  Climbing Jacksonville Center
Fri 11:21:17 PM 32.8275 -78.1069 197° South 496 571 35,900  Descending Jacksonville Center
Fri 11:22:17 PM 32.6981 -78.1581 198° South 496 571 36,000 50 Climbing Jacksonville Center
Fri 11:23:17 PM 32.5683 -78.2069 198° South 496 571 36,000  Level Jacksonville Center
Fri 11:24:17 PM 32.4406 -78.2553 198° South 496 571 36,000  Level Jacksonville Center
Fri 11:25:17 PM 32.2986 -78.3092 198° South 496 571 36,000  Level Jacksonville Center
Fri 11:26:17 PM 32.1689 -78.3597 198° South 496 571 36,000  Level Jacksonville Center
Fri 11:27:17 PM 32.0369 -78.4081 197° South 491 565 36,000  Level Jacksonville Center
Fri 11:28:17 PM 31.9114 -78.4558 198° South 491 565 36,000 -50 Level Jacksonville Center
Fri 11:29:17 PM 31.7836 -78.5033 198° South 491 565 35,900  Descending Jacksonville Center
Fri 11:30:17 PM 31.6558 -78.5483 197° South 485 558 36,000 50 Climbing Jacksonville Center
Fri 11:31:17 PM 31.5281 -78.5958 198° South 490 564 36,000  Level Jacksonville Center
Fri 11:32:17 PM 31.4022 -78.6406 197° South 471 542 36,000  Level Jacksonville Center
Fri 11:33:17 PM 31.2806 -78.6850 197° South 480 552 36,000 -50 Level Jacksonville Center
Fri 11:34:17 PM 31.1547 -78.7319 198° South 464 534 35,900 -50 Descending Jacksonville Center
Fri 11:35:17 PM 31.0289 -78.7786 198° South 476 548 35,900  Level Jacksonville Center
Fri 11:36:17 PM 30.9153 -78.8200 197° South 476 548 35,900 50 Level Jacksonville Center
Fri 11:37:17 PM 30.7914 -78.8639 197° South 476 548 36,000 42 Climbing Jacksonville Center
Fri 11:38:40 PM 30.6175 -78.9231 196° South 497 572 36,000  Level Miami Center
Fri 11:39:42 PM 30.4817 -78.9492 189° South 492 566 36,000  Level Miami Center
Fri 11:40:40 PM 30.3522 -78.9731 189° South 487 560 36,000  Level Miami Center
Fri 11:41:40 PM 30.2183 -79.0017 190° South 487 560 36,000 -50 Level Miami Center
Fri 11:42:40 PM 30.0825 -79.0278 189° South 487 560 35,900  Descending Miami Center
Fri 11:43:40 PM 29.9569 -79.0611 193° South 487 560 36,000 50 Climbing Miami Center
Fri 11:44:40 PM 29.8231 -79.0847 189° South 487 560 36,000  Level Miami Center
Fri 11:45:41 PM 29.6872 -79.1081 188° South 487 560 36,000  Level Miami Center
Fri 11:46:41 PM 29.5533 -79.1364 190° South 486 559 36,000  Level Miami Center
Fri 11:47:42 PM 29.4236 -79.1622 190° South 491 565 36,000  Level Miami Center
Fri 11:48:40 PM 29.2939 -79.1858 189° South 491 565 36,000  Level Miami Center
Fri 11:49:40 PM 29.1578 -79.2089 188° South 485 558 36,000  Level Miami Center
Fri 11:50:40 PM 29.0281 -79.2347 190° South 485 558 36,000  Level Miami Center
Fri 11:51:43 PM 28.8961 -79.2603 190° South 480 552 36,000  Level Miami Center
Fri 11:52:40 PM 28.7622 -79.2836 189° South 485 558 36,000  Level Miami Center
Fri 11:53:40 PM 28.6303 -79.3067 189° South 485 558 36,000  Level Miami Center
Fri 11:54:41 PM 28.5047 -79.3322 190° South 485 558 36,000  Level Miami Center
Fri 11:55:41 PM 28.3728 -79.3625 191° South 485 558 36,000  Level Miami Center
Fri 11:56:42 PM 28.2428 -79.3947 192° South 485 558 36,000  Level Miami Center
Fri 11:57:40 PM 28.1169 -79.4272 193° South 485 558 36,000 -407 Level Miami Center
Fri 11:58:40 PM 27.9847 -79.4597 192° South 485 558 35,200 -1,377 Descending Miami Center
Fri 11:59:42 PM 27.8547 -79.4894 191° South 470 541 33,200 -1,950 Descending Miami Center
Sat 12:00:40 AM 27.7353 -79.5197 193° South 440 506 31,300 -1,983 Descending Miami Center
Sat 12:01:40 AM 27.6306 -79.5453 192° South 430 495 29,300 -2,050 Descending Miami Center
Sat 12:02:40 AM 27.5150 -79.5731 192° South 430 495 27,200 -2,300 Descending Miami Center
Sat 12:03:40 AM 27.3914 -79.6006 191° South 425 489 24,700 -2,150 Descending Miami Center
Sat 12:04:40 AM 27.2928 -79.6264 193° South 412 474 22,900 -2,115 Descending Miami Center
Sat 12:05:42 AM 27.1711 -79.6561 192° South 412 474 20,400 -2,115 Descending Miami Center
Sat 12:06:42 AM 27.0744 -79.6794 192° South 406 467 18,600 -2,186 Descending Miami Center
Sat 12:07:40 AM 26.9569 -79.7069 192° South 395 455 16,100 -2,269 Descending Miami Center
Sat 12:08:41 AM 26.8564 -79.7322 193° South 386 444 14,100 -2,050 Descending Miami Center
Sat 12:09:40 AM 26.7556 -79.7556 192° South 378 435 12,000 -1,513 Descending Miami Center
Sat 12:10:40 AM 26.6717 -79.7744 191° South 359 413 11,100 -960 Descending Miami Center
Sat 12:10:55 AM 26.6381 -79.7850 196° South 312 359 10,800 -1,474 Descending Miami Center
Sat 12:11:37 AM 26.5772 -79.7997 192° South 308 354 9,700 -1,600 Descending Miami Center
Sat 12:11:40 AM 26.5772 -79.7953 90° East 330 380 9,600 -1,355 Descending Miami Center
Sat 12:12:39 AM 26.4975 -79.8186 195° South 299 344 8,300 -1,258 Descending Miami Center
Sat 12:12:42 AM 26.5036 -79.8142 33° Northeast 309 356 8,300 -295 Level Miami Center
Sat 12:13:40 AM 26.4175 -79.8422 196° South 294 338 8,000 -155 Descending Miami Center
Sat 12:14:38 AM 26.3394 -79.8797 203° Southwest 298 343 8,000  Level Miami Center
Sat 12:14:41 AM 26.3481 -79.8731 35° Northeast 298 343 8,000 -469 Level Miami Center
Sat 12:15:42 AM 26.2861 -79.9408 224° Southwest 298 343 7,500 -610 Descending Miami Center
Sat 12:16:39 AM 26.2200 -79.9994 219° Southwest 288 331 6,800 -689 Descending Miami Center
Sat 12:16:43 AM 26.2242 -79.9972 26° Northeast 293 337 6,800 -984 Level Miami Center
Sat 12:17:40 AM 26.1808 -80.0747 238° Southwest 287 330 5,800 -1,436 Descending Miami Center
Sat 12:18:40 AM 26.1622 -80.1531 255° West 277 319 4,000 -1,714 Descending Miami Center
Sat 12:18:43 AM 26.1581 -80.1575 224° Southwest 275 316 4,000 -1,800 Level Miami Center
Sat 12:19:40 AM 26.1458 -80.2289 259° West 270 311 2,200 -1,800 Descending Miami Center
Sat 12:19:43 AM 26.1417 -80.2333 224° Southwest 255 293 2,200 -194 Level Miami Center
Sat 12:20:42 AM 26.1172 -80.2997 248° West 208 239 2,000 -150 Descending Miami Center
Sat 12:21:43 AM 26.0739 -80.2778 156° South 187 215 1,900 -435 Descending Miami Center
Sat 12:22:46 AM 26.0750 -80.2314 88° East 130 150 1,100 -744 Descending Miami Center
Sat 12:23:44 AM 26.0736 -80.1897 92° East 131 151 400 -724 Descending Miami Center

Login

Don't have an account? Register now (free) for customized features, flight alerts, and more!